Time;durP1;ratioP1;P1;durP2;ratioP2;P2;SDS_P1;SDS_P2;PMS_P1;PMS_P2;Temp;Humidity;BMP_temperature;BMP_pressure;BME280_temperature;BME280_humidity;BME280_pressure;Samples;Min_cycle;Max_cycle;Signal;HPM_P1;HPM_P2
2022/08/09 00:02:05;;;;;;;5.00;3.70;;;;;;;19.27;nan;100653.56;4970060;28;20035;-71
2022/08/09 00:04:31;;;;;;;9.15;3.80;;;;;;;;;;4974280;28;20030;-71
2022/08/09 00:06:57;;;;;;;4.72;3.53;;;;;;;19.32;nan;100688.25;4987396;28;20578;-71
2022/08/09 00:09:22;;;;;;;5.20;3.30;;;;;;;19.35;nan;100673.56;4990567;28;20046;-70
2022/08/09 00:11:48;;;;;;;4.40;3.40;;;;;;;19.30;nan;100671.72;4988871;28;20034;-71
2022/08/09 00:14:14;;;;;;;8.73;3.50;;;;;;;19.30;nan;100713.66;4986724;28;20048;-71
2022/08/09 00:16:39;;;;;;;5.57;3.53;;;;;;;19.29;nan;100658.63;4989542;28;20042;-71
2022/08/09 00:19:05;;;;;;;6.05;3.63;;;;;;;19.33;nan;100681.03;4975698;28;20366;-71
2022/08/09 00:21:30;;;;;;;8.65;3.53;;;;;;;19.30;nan;100684.28;4984827;28;20034;-71
2022/08/09 00:23:57;;;;;;;5.50;3.60;;;;;;;19.35;nan;100673.56;4974906;28;20356;-75
2022/08/09 00:26:24;;;;;;;6.03;3.72;;;;;;;19.38;nan;100682.88;4982725;28;20045;-75
2022/08/09 00:28:49;;;;;;;4.68;3.15;;;;;;;19.35;nan;100678.91;4976517;28;20134;-73
2022/08/09 00:31:14;;;;;;;7.15;3.40;;;;;;;19.36;nan;100679.69;4975533;28;20038;-73
2022/08/09 00:33:42;;;;;;;10.75;3.70;;;;;;;19.41;nan;100687.66;4990155;28;20076;-74
2022/08/09 00:36:08;;;;;;;6.35;4.03;;;;;;;19.42;nan;100689.25;4992239;28;20122;-75
2022/08/09 00:38:34;;;;;;;7.07;3.58;;;;;;;19.42;nan;100670.56;4990241;28;20109;-74
2022/08/09 00:40:59;;;;;;;6.30;3.55;;;;;;;19.38;nan;100640.16;4990174;28;20069;-74
2022/08/09 00:43:25;;;;;;;5.90;3.63;;;;;;;19.36;nan;100701.84;4988873;28;20030;-74
2022/08/09 00:45:51;;;;;;;5.75;3.33;;;;;;;19.42;nan;100678.56;4986519;28;20411;-74
2022/08/09 00:48:16;;;;;;;6.13;3.10;;;;;;;19.45;nan;100753.63;4991025;28;20030;-74
2022/08/09 00:50:42;;;;;;;5.82;3.25;;;;;;;19.43;nan;100690.88;4989100;28;20072;-75
2022/08/09 00:53:09;;;;;;;8.07;3.55;;;;;;;19.47;nan;100726.63;4985798;28;20110;-74
2022/08/09 00:55:34;;;;;;;7.30;3.40;;;;;;;19.47;nan;100649.97;4988886;28;20473;-75
2022/08/09 00:58:00;;;;;;;4.47;3.33;;;;;;;19.53;nan;100686.25;4985778;28;20074;-74
2022/08/09 01:00:27;;;;;;;5.10;3.13;;;;;;;19.54;nan;100716.44;4980700;28;20386;-75
2022/08/09 01:03:13;;;;;;;8.65;3.50;;;;;;;19.60;nan;100671.78;4983476;28;20030;-74
2022/08/09 01:05:51;;;;;;;7.55;4.05;;;;;;;19.56;nan;100698.25;4981943;28;20388;-74
2022/08/09 01:08:25;;;;;;;4.25;3.38;;;;;;;19.60;nan;100707.31;4988968;28;20074;-75
2022/08/09 01:11:03;;;;;;;5.57;3.50;;;;;;;19.52;nan;100726.59;4991166;28;20057;-75
2022/08/09 01:13:45;;;;;;;6.55;3.30;;;;;;;19.58;nan;100664.03;4970709;28;20075;-75
2022/08/09 01:16:11;;;;;;;5.50;3.50;;;;;;;19.64;nan;100697.66;4989238;28;20034;-75
2022/08/09 01:18:40;;;;;;;5.82;3.70;;;;;;;;;;4983093;28;20045;-74
2022/08/09 01:21:14;;;;;;;6.45;3.83;;;;;;;19.67;nan;100699.78;4985550;28;20050;-74
2022/08/09 01:23:48;;;;;;;6.95;3.45;;;;;;;19.69;nan;100699.53;4989033;28;20422;-75
2022/08/09 01:26:24;;;;;;;8.23;4.10;;;;;;;19.69;nan;100684.28;4986254;28;20047;-75
2022/08/09 01:28:53;;;;;;;4.40;3.88;;;;;;;19.66;nan;100682.16;4950049;28;20054;-75
2022/08/09 01:31:21;;;;;;;6.40;4.18;;;;;;;19.65;nan;100693.91;4953611;28;20503;-75
2022/08/09 01:33:48;;;;;;;6.60;3.90;;;;;;;19.68;nan;100706.75;4960786;28;20040;-74
2022/08/09 01:36:19;;;;;;;8.35;3.88;;;;;;;;;;4964402;28;20079;-75
2022/08/09 01:38:47;;;;;;;7.18;3.83;;;;;;;19.74;nan;100704.84;4946608;29;20118;-75
2022/08/09 01:41:23;;;;;;;7.25;3.90;;;;;;;19.70;nan;100743.88;4951356;28;20034;-75
2022/08/09 01:43:51;;;;;;;4.80;3.78;;;;;;;19.76;nan;100702.69;4961564;28;20027;-72
2022/08/09 01:46:23;;;;;;;8.45;4.20;;;;;;;19.79;nan;100714.69;4952488;28;20027;-72
2022/08/09 01:48:50;;;;;;;10.73;3.92;;;;;;;19.77;nan;100683.69;4950261;29;20035;-74
2022/08/09 01:51:18;;;;;;;5.95;4.10;;;;;;;19.84;nan;100710.09;4951476;28;20147;-75
2022/08/09 01:53:45;;;;;;;8.20;4.05;;;;;;;19.80;nan;100677.00;4942365;28;20040;-74
2022/08/09 01:56:11;;;;;;;7.32;4.05;;;;;;;;;;4953336;29;20116;-75
2022/08/09 01:58:38;;;;;;;7.40;4.00;;;;;;;19.82;nan;100706.91;4952131;29;20122;-75
2022/08/09 02:01:04;;;;;;;6.13;4.47;;;;;;;19.83;nan;100673.78;4949124;28;20046;-74
2022/08/09 02:03:34;;;;;;;7.47;4.43;;;;;;;19.88;nan;100683.63;4951527;28;20039;-74
2022/08/09 02:06:01;;;;;;;6.05;4.20;;;;;;;19.91;nan;100701.78;4949456;29;20780;-75
2022/08/09 02:08:27;;;;;;;5.72;3.92;;;;;;;;;;4948891;28;20040;-74
2022/08/09 02:10:55;;;;;;;8.77;4.10;;;;;;;19.95;nan;100705.50;4965185;28;20110;-74
2022/08/09 02:13:21;;;;;;;6.20;4.57;;;;;;;;;;4951451;28;20123;-74
2022/08/09 02:15:48;;;;;;;6.85;4.18;;;;;;;;;;4950343;28;20086;-74
2022/08/09 02:18:22;;;;;;;7.80;4.03;;;;;;;19.98;nan;100761.84;4951233;28;20046;-74
2022/08/09 02:20:54;;;;;;;8.45;4.43;;;;;;;19.95;nan;100721.53;4962540;28;20441;-75
2022/08/09 02:23:36;;;;;;;5.88;4.40;;;;;;;19.88;nan;100721.03;4947819;28;20435;-75
2022/08/09 02:26:05;;;;;;;6.35;4.05;;;;;;;19.81;nan;100713.34;4951712;28;20046;-75
2022/08/09 02:28:39;;;;;;;8.63;4.68;;;;;;;19.82;nan;100700.78;4970903;28;20065;-75
2022/08/09 02:31:12;;;;;;;11.65;4.45;;;;;;;19.80;nan;100641.47;4964458;28;20041;-75
2022/08/09 02:33:40;;;;;;;7.45;4.65;;;;;;;19.84;nan;100720.00;4968777;28;20113;-75
2022/08/09 02:36:09;;;;;;;6.20;4.03;;;;;;;19.83;nan;100715.75;4971319;28;20038;-75
2022/08/09 02:38:41;;;;;;;6.03;4.00;;;;;;;;;;4969584;28;20035;-75
2022/08/09 02:41:15;;;;;;;6.70;4.63;;;;;;;19.85;nan;100698.34;4981779;28;20493;-75
2022/08/09 02:43:43;;;;;;;6.70;5.03;;;;;;;19.79;nan;100688.75;4968026;28;20035;-75
2022/08/09 02:46:10;;;;;;;11.63;4.70;;;;;;;;;;4966075;28;20039;-74
2022/08/09 02:48:37;;;;;;;7.70;4.55;;;;;;;19.83;nan;100716.53;4980100;28;20408;-75
2022/08/09 02:51:04;;;;;;;7.57;4.22;;;;;;;;;;4964827;28;20047;-74
2022/08/09 02:53:38;;;;;;;8.25;4.72;;;;;;;19.65;nan;100733.19;4963908;28;20063;-74
2022/08/09 02:56:06;;;;;;;9.70;4.30;;;;;;;19.68;nan;100724.63;4968076;28;20042;-74
2022/08/09 02:58:33;;;;;;;6.60;4.53;;;;;;;19.69;nan;100656.78;4962467;28;20039;-75
2022/08/09 03:01:00;;;;;;;7.82;4.30;;;;;;;19.71;nan;100674.13;4970209;28;20568;-75
2022/08/09 03:03:27;;;;;;;8.27;4.65;;;;;;;19.72;nan;100701.66;4968872;28;20030;-75
2022/08/09 03:05:55;;;;;;;5.95;4.38;;;;;;;19.69;nan;100668.28;4965607;28;20030;-75
2022/08/09 03:08:23;;;;;;;7.40;3.90;;;;;;;19.63;nan;100682.69;4968592;28;20042;-74
2022/08/09 03:10:49;;;;;;;6.80;4.32;;;;;;;;;;4966660;28;20034;-75
2022/08/09 03:13:16;;;;;;;12.38;4.47;;;;;;;;;;4964990;28;20131;-74
2022/08/09 03:15:42;;;;;;;7.05;3.90;;;;;;;19.65;nan;100663.72;4968710;28;20044;-74
2022/08/09 03:18:09;;;;;;;7.70;4.43;;;;;;;19.61;nan;100708.91;4968393;28;20039;-75
2022/08/09 03:20:37;;;;;;;8.93;4.65;;;;;;;19.58;nan;100727.34;4967038;28;20042;-75
2022/08/09 03:23:03;;;;;;;5.90;4.15;;;;;;;19.58;nan;100714.00;4967870;28;20066;-75
2022/08/09 03:25:30;;;;;;;10.10;4.38;;;;;;;19.53;nan;100701.47;4970024;28;20031;-75
2022/08/09 03:27:57;;;;;;;5.82;3.95;;;;;;;19.49;nan;100700.41;4956254;28;20057;-75
2022/08/09 03:30:24;;;;;;;7.65;4.75;;;;;;;19.49;nan;100695.09;4966740;28;20034;-74
2022/08/09 03:32:53;;;;;;;10.50;4.88;;;;;;;19.34;nan;100693.31;4968319;28;20038;-75
2022/08/09 03:35:19;;;;;;;6.50;4.53;;;;;;;19.46;nan;100719.69;4971684;28;20034;-75
2022/08/09 03:37:44;;;;;;;9.68;4.60;;;;;;;19.48;nan;100737.03;4954757;28;20559;-74
2022/08/09 03:40:10;;;;;;;5.88;4.65;;;;;;;19.45;nan;100731.44;4971940;28;20142;-75
2022/08/09 03:42:36;;;;;;;6.38;5.20;;;;;;;19.49;nan;100689.75;4969379;28;20027;-75
2022/08/09 03:45:02;;;;;;;7.18;5.22;;;;;;;19.43;nan;100771.78;4986655;28;20050;-75
2022/08/09 03:47:27;;;;;;;6.85;5.03;;;;;;;19.36;nan;100667.13;4972275;28;20030;-75
2022/08/09 03:49:54;;;;;;;8.48;4.88;;;;;;;;;;4968788;28;20481;-75
2022/08/09 03:52:20;;;;;;;10.45;5.15;;;;;;;19.37;nan;100716.81;4984706;28;20074;-73
2022/08/09 03:54:47;;;;;;;8.50;5.85;;;;;;;;;;4981953;28;20027;-74
2022/08/09 03:57:14;;;;;;;11.00;5.65;;;;;;;19.39;nan;100728.00;4973746;28;20393;-74
2022/08/09 03:59:41;;;;;;;6.65;5.28;;;;;;;19.32;nan;100771.03;4975458;28;20031;-74
2022/08/09 04:02:06;;;;;;;8.05;5.35;;;;;;;19.37;nan;100740.03;4971019;28;20035;-73
2022/08/09 04:04:33;;;;;;;12.25;5.65;;;;;;;19.34;nan;100714.66;4968672;28;20044;-74
2022/08/09 04:06:58;;;;;;;9.43;5.45;;;;;;;19.38;nan;100741.63;4970726;28;20027;-74
2022/08/09 04:09:24;;;;;;;11.88;6.63;;;;;;;19.40;nan;100750.19;4980130;28;20039;-74
2022/08/09 04:11:49;;;;;;;11.80;5.90;;;;;;;19.44;nan;100752.03;4969753;28;20658;-73
2022/08/09 04:14:20;;;;;;;8.65;6.20;;;;;;;19.41;nan;100754.44;4970474;28;20094;-74
2022/08/09 04:16:45;;;;;;;10.10;6.18;;;;;;;19.44;nan;100749.34;4971516;28;20073;-73
2022/08/09 04:19:12;;;;;;;12.57;5.95;;;;;;;19.45;nan;100744.81;4970373;28;20641;-73
2022/08/09 04:21:38;;;;;;;10.25;6.47;;;;;;;19.43;nan;100699.66;4969971;28;20117;-73
2022/08/09 04:24:04;;;;;;;6.68;5.90;;;;;;;19.50;nan;100734.09;4968112;28;20118;-74
2022/08/09 04:26:29;;;;;;;12.63;6.53;;;;;;;19.54;nan;100762.66;4970115;28;20109;-74
2022/08/09 04:28:55;;;;;;;13.30;6.53;;;;;;;19.51;nan;100736.50;4971417;28;20568;-74
2022/08/09 04:31:20;;;;;;;11.93;6.93;;;;;;;19.59;nan;100745.00;4986960;28;20046;-74
2022/08/09 04:33:46;;;;;;;10.32;6.68;;;;;;;19.61;nan;100762.34;4989544;28;20389;-73
2022/08/09 04:36:11;;;;;;;13.95;7.93;;;;;;;19.58;nan;100754.88;4988923;28;20559;-73
2022/08/09 04:38:36;;;;;;;11.50;6.78;;;;;;;19.61;nan;100793.59;4988537;28;20034;-74
2022/08/09 04:41:02;;;;;;;8.15;6.72;;;;;;;19.63;nan;100764.72;4972035;28;20134;-74
2022/08/09 04:43:27;;;;;;;13.48;6.97;;;;;;;19.62;nan;100760.47;4990105;28;20461;-77
2022/08/09 04:45:53;;;;;;;13.70;7.05;;;;;;;19.66;nan;100791.69;4992629;28;20081;-74
2022/08/09 04:48:18;;;;;;;12.02;6.55;;;;;;;19.72;nan;100771.13;4993280;28;20035;-75
2022/08/09 04:50:43;;;;;;;11.82;7.50;;;;;;;19.77;nan;100763.84;4987678;28;20038;-76
2022/08/09 04:53:10;;;;;;;13.57;7.57;;;;;;;19.88;nan;100769.16;4988168;28;20034;-75
2022/08/09 04:55:39;;;;;;;9.63;6.93;;;;;;;19.89;nan;100762.72;4967460;28;20049;-75
2022/08/09 04:58:05;;;;;;;13.32;7.05;;;;;;;19.92;nan;100754.13;4969289;28;20042;-74
2022/08/09 05:00:33;;;;;;;10.65;7.05;;;;;;;20.01;nan;100751.69;4992856;28;20530;-76
2022/08/09 05:03:03;;;;;;;13.85;6.93;;;;;;;20.07;nan;100762.06;4983752;28;20031;-77
2022/08/09 05:05:29;;;;;;;14.63;8.57;;;;;;;20.21;nan;100778.25;4975080;28;20104;-75
2022/08/09 05:07:54;;;;;;;15.18;7.93;;;;;;;20.30;nan;100773.88;4970873;28;20488;-74
2022/08/09 05:10:20;;;;;;;14.35;7.72;;;;;;;;;;4976200;28;20042;-74
2022/08/09 05:12:45;;;;;;;12.23;8.57;;;;;;;20.48;nan;100768.94;4993033;28;20038;-75
2022/08/09 05:15:10;;;;;;;14.20;8.63;;;;;;;;;;4977398;28;20275;-74
2022/08/09 05:17:36;;;;;;;13.90;9.23;;;;;;;;;;4992819;28;20035;-75
2022/08/09 05:20:02;;;;;;;17.13;10.40;;;;;;;20.53;nan;100783.06;4982693;28;20283;-69
2022/08/09 05:22:27;;;;;;;17.17;10.70;;;;;;;20.52;nan;100788.66;4989074;28;20022;-73
2022/08/09 05:24:52;;;;;;;12.23;8.82;;;;;;;;;;4984107;28;20026;-71
2022/08/09 05:27:18;;;;;;;16.92;9.68;;;;;;;20.55;nan;100799.66;4988437;28;20050;-71
2022/08/09 05:29:43;;;;;;;13.32;10.00;;;;;;;20.54;nan;100771.28;4986517;28;20117;-72
2022/08/09 05:32:09;;;;;;;16.90;10.23;;;;;;;20.46;nan;100760.38;4988539;28;20113;-71
2022/08/09 05:34:34;;;;;;;16.33;10.05;;;;;;;20.46;nan;100749.69;4990467;28;20109;-73
2022/08/09 05:37:01;;;;;;;14.10;9.23;;;;;;;20.38;nan;100823.31;4987900;28;20139;-71
2022/08/09 05:39:27;;;;;;;15.25;9.88;;;;;;;20.42;nan;100792.25;4986625;28;20065;-72
2022/08/09 05:41:52;;;;;;;17.45;9.95;;;;;;;;;;4969290;28;20066;-73
2022/08/09 05:44:18;;;;;;;16.77;10.00;;;;;;;;;;4986387;28;20026;-72
2022/08/09 05:46:43;;;;;;;14.07;10.57;;;;;;;20.39;nan;100731.28;4990395;28;20037;-71
2022/08/09 05:49:08;;;;;;;15.25;10.07;;;;;;;20.39;nan;100836.41;4985324;28;20359;-70
2022/08/09 05:51:34;;;;;;;14.23;9.73;;;;;;;;;;4985370;28;20034;-75
2022/08/09 05:53:59;;;;;;;15.90;10.03;;;;;;;20.44;nan;100730.44;4989697;28;20484;-75
2022/08/09 05:56:27;;;;;;;18.92;10.68;;;;;;;20.33;nan;100770.66;4987825;28;20030;-75
2022/08/09 05:58:56;;;;;;;14.25;9.93;;;;;;;20.51;nan;100765.69;4989212;28;20049;-75
2022/08/09 06:01:28;;;;;;;14.35;10.55;;;;;;;;;;4991125;28;20127;-76
2022/08/09 06:03:55;;;;;;;14.75;10.20;;;;;;;;;;4986605;28;20026;-75
2022/08/09 06:06:20;;;;;;;17.02;10.65;;;;;;;;;;4986385;28;20046;-75
2022/08/09 06:08:46;;;;;;;15.25;10.82;;;;;;;20.54;nan;100784.66;4981999;28;20031;-75
2022/08/09 06:11:11;;;;;;;17.77;10.63;;;;;;;20.53;nan;100801.78;4984031;28;20038;-75
2022/08/09 06:13:37;;;;;;;15.98;10.95;;;;;;;20.49;nan;100755.25;4967797;28;20125;-74
2022/08/09 06:16:04;;;;;;;20.92;11.20;;;;;;;20.60;nan;100793.47;4973653;28;20034;-75
2022/08/09 06:18:29;;;;;;;20.42;9.90;;;;;;;20.64;nan;100801.72;4985478;28;20038;-75
2022/08/09 06:20:56;;;;;;;18.35;10.73;;;;;;;20.64;nan;100789.16;4986573;28;20041;-75
2022/08/09 06:23:22;;;;;;;15.32;10.00;;;;;;;20.68;nan;100794.72;4990332;28;20034;-75
2022/08/09 06:25:48;;;;;;;14.48;9.50;;;;;;;20.65;nan;100854.97;4981735;28;20488;-74
2022/08/09 06:28:15;;;;;;;18.88;10.57;;;;;;;20.72;nan;100779.69;4980433;28;20160;-76
2022/08/09 06:30:41;;;;;;;19.92;10.70;;;;;;;20.82;nan;100806.34;4983390;28;20168;-75
2022/08/09 06:33:07;;;;;;;18.83;9.93;;;;;;;20.82;nan;100787.63;4983458;28;20035;-76
2022/08/09 06:35:33;;;;;;;20.38;10.15;;;;;;;20.90;nan;100812.97;4983281;28;20452;-74
2022/08/09 06:37:59;;;;;;;19.10;9.80;;;;;;;;;;4984729;28;20065;-74
2022/08/09 06:40:24;;;;;;;16.77;9.57;;;;;;;21.08;nan;100825.63;4965830;28;20059;-75
2022/08/09 06:42:49;;;;;;;18.42;9.63;;;;;;;21.20;nan;100795.75;4981293;28;20396;-75
2022/08/09 06:45:15;;;;;;;17.33;9.05;;;;;;;21.29;nan;100825.41;4981774;28;20070;-76
2022/08/09 06:47:41;;;;;;;17.63;9.73;;;;;;;21.26;nan;100816.03;4984417;28;20034;-74
2022/08/09 06:50:07;;;;;;;15.35;9.95;;;;;;;21.38;nan;100835.19;4984603;28;20034;-71
2022/08/09 06:52:33;;;;;;;16.98;9.25;;;;;;;21.50;nan;100831.31;4982719;28;20038;-72
2022/08/09 06:54:58;;;;;;;17.65;9.52;;;;;;;21.65;nan;100809.69;4981987;28;20041;-71
2022/08/09 06:57:24;;;;;;;14.13;8.95;;;;;;;21.74;nan;100825.91;4963039;28;20042;-72
2022/08/09 06:59:49;;;;;;;16.33;9.57;;;;;;;21.83;nan;100830.31;4981856;28;20034;-71
2022/08/09 07:02:15;;;;;;;14.30;9.57;;;;;;;21.91;nan;100869.13;4981826;28;20593;-71
2022/08/09 07:04:40;;;;;;;15.18;9.80;;;;;;;21.97;nan;100841.13;4983907;28;20070;-72
2022/08/09 07:07:06;;;;;;;16.75;9.55;;;;;;;22.11;nan;100857.28;4962906;28;20081;-71
2022/08/09 07:09:31;;;;;;;15.05;9.60;;;;;;;22.22;nan;100855.28;4980820;28;20062;-71
2022/08/09 07:11:57;;;;;;;14.77;8.93;;;;;;;22.32;nan;100859.72;4981989;28;20114;-75
2022/08/09 07:14:22;;;;;;;14.00;9.25;;;;;;;22.35;nan;100825.03;4982099;28;20039;-71
2022/08/09 07:16:48;;;;;;;15.52;8.85;;;;;;;22.45;nan;100849.00;4962868;28;20031;-72
2022/08/09 07:19:14;;;;;;;13.45;8.68;;;;;;;22.55;nan;100906.28;4979912;28;20065;-70
2022/08/09 07:21:41;;;;;;;12.07;8.77;;;;;;;22.54;nan;100849.13;4982653;28;20037;-71
2022/08/09 07:24:06;;;;;;;16.90;9.77;;;;;;;22.67;nan;100859.13;4980111;28;20038;-69
2022/08/09 07:26:33;;;;;;;13.68;9.02;;;;;;;22.68;nan;100855.34;4981546;28;20034;-69
2022/08/09 07:28:59;;;;;;;13.60;9.00;;;;;;;22.78;nan;100856.25;4980136;28;20130;-71
2022/08/09 07:31:25;;;;;;;11.60;8.55;;;;;;;22.71;nan;100830.59;4966132;28;20035;-75
2022/08/09 07:33:50;;;;;;;13.48;9.05;;;;;;;22.83;nan;100815.88;4982387;28;20514;-74
2022/08/09 07:36:16;;;;;;;11.90;9.10;;;;;;;22.88;nan;100854.19;4982796;28;20046;-74
2022/08/09 07:38:42;;;;;;;14.40;9.38;;;;;;;22.97;nan;100861.56;4981608;28;20697;-74
2022/08/09 07:41:07;;;;;;;13.35;8.57;;;;;;;22.96;nan;100807.03;4981700;28;20035;-75
2022/08/09 07:43:33;;;;;;;14.77;9.38;;;;;;;23.07;nan;100846.06;4982821;28;20125;-74
2022/08/09 07:45:59;;;;;;;15.82;9.18;;;;;;;22.99;nan;100838.72;4980919;28;20034;-74
2022/08/09 07:48:24;;;;;;;11.45;7.95;;;;;;;23.19;nan;100867.06;4981310;28;20043;-74
2022/08/09 07:50:50;;;;;;;14.32;8.98;;;;;;;23.24;nan;100853.53;4982120;28;20027;-74
2022/08/09 07:53:16;;;;;;;13.80;8.23;;;;;;;23.24;nan;100890.34;4981909;28;20112;-75
2022/08/09 07:55:44;;;;;;;11.40;8.32;;;;;;;;;;4982282;28;20104;-75
2022/08/09 07:58:09;;;;;;;13.60;9.48;;;;;;;23.53;nan;100858.59;4983305;28;20035;-74
2022/08/09 08:00:35;;;;;;;11.60;8.32;;;;;;;23.56;nan;100841.88;4984482;28;20093;-75
2022/08/09 08:03:02;;;;;;;15.30;9.45;;;;;;;23.59;nan;100856.59;4983128;28;20066;-75
2022/08/09 08:05:27;;;;;;;15.00;8.75;;;;;;;23.61;nan;100813.25;4985947;28;20083;-70
2022/08/09 08:07:56;;;;;;;13.52;8.75;;;;;;;23.74;nan;100871.63;4973717;28;20125;-71
2022/08/09 08:10:22;;;;;;;17.77;9.53;;;;;;;23.85;nan;100864.13;4985287;28;20038;-75
2022/08/09 08:12:47;;;;;;;14.25;8.75;;;;;;;23.89;nan;100860.53;4973441;28;20277;-75
2022/08/09 08:15:18;;;;;;;13.25;8.93;;;;;;;23.99;nan;100854.13;4990382;28;20057;-75
2022/08/09 08:17:50;;;;;;;15.60;8.25;;;;;;;24.04;nan;100855.91;4986110;28;20035;-75
2022/08/09 08:20:16;;;;;;;11.32;8.15;;;;;;;24.17;nan;100838.94;4987557;28;20034;-74
2022/08/09 08:22:42;;;;;;;14.70;7.88;;;;;;;24.23;nan;100834.22;4981756;28;20426;-71
2022/08/09 08:25:08;;;;;;;11.02;8.70;;;;;;;24.27;nan;100862.13;4980462;28;20168;-70
2022/08/09 08:27:33;;;;;;;15.23;8.77;;;;;;;24.30;nan;100861.50;4982510;28;20096;-70
2022/08/09 08:29:59;;;;;;;14.13;9.32;;;;;;;24.27;nan;100865.59;4988023;28;20085;-71
2022/08/09 08:32:24;;;;;;;14.10;9.85;;;;;;;24.36;nan;100822.59;4986328;28;20034;-71
2022/08/09 08:34:50;;;;;;;15.85;9.45;;;;;;;24.37;nan;100854.59;4988694;28;20774;-73
2022/08/09 08:37:15;;;;;;;12.50;8.98;;;;;;;24.34;nan;100839.03;4993040;28;20133;-73
2022/08/09 08:39:41;;;;;;;14.80;8.90;;;;;;;24.41;nan;100817.09;4985858;28;20521;-70
2022/08/09 08:42:07;;;;;;;13.23;9.73;;;;;;;24.56;nan;100818.63;4983454;28;20034;-74
2022/08/09 08:44:36;;;;;;;15.13;10.05;;;;;;;24.69;nan;100849.28;4983202;28;20096;-74
2022/08/09 08:47:03;;;;;;;16.33;10.00;;;;;;;24.75;nan;100870.34;4980400;28;20045;-76
2022/08/09 08:49:36;;;;;;;12.45;9.05;;;;;;;24.79;nan;100859.78;4989023;28;20038;-74
2022/08/09 08:52:01;;;;;;;13.40;9.57;;;;;;;24.86;nan;100843.97;4992379;28;20034;-74
2022/08/09 08:54:27;;;;;;;14.38;10.00;;;;;;;24.96;nan;100861.75;4974800;28;20477;-75
2022/08/09 08:56:53;;;;;;;18.90;9.07;;;;;;;25.00;nan;100849.25;4991566;28;20030;-74
2022/08/09 08:59:19;;;;;;;15.77;9.00;;;;;;;25.04;nan;100840.25;4991862;28;20117;-75
2022/08/09 09:01:45;;;;;;;12.77;9.27;;;;;;;25.06;nan;100883.03;4971871;28;20113;-74
2022/08/09 09:04:12;;;;;;;16.33;9.60;;;;;;;25.13;nan;100851.03;4986336;28;20047;-74
2022/08/09 09:06:40;;;;;;;14.07;8.68;;;;;;;25.27;nan;100869.03;4982949;28;20035;-74
2022/08/09 09:09:06;;;;;;;13.57;9.23;;;;;;;25.31;nan;100860.00;4981421;28;20165;-75
2022/08/09 09:11:34;;;;;;;18.40;8.45;;;;;;;25.42;nan;100815.44;4979187;28;20044;-73
2022/08/09 09:14:08;;;;;;;12.70;8.43;;;;;;;25.51;nan;100879.41;4981045;28;20030;-74
2022/08/09 09:16:34;;;;;;;13.48;8.45;;;;;;;25.55;nan;100840.72;4962706;28;20575;-75
2022/08/09 09:19:01;;;;;;;18.17;8.93;;;;;;;;;;4960854;28;20070;-75
2022/08/09 09:21:26;;;;;;;16.83;9.20;;;;;;;25.66;nan;100823.09;4980009;28;20038;-75
2022/08/09 09:23:52;;;;;;;14.35;9.57;;;;;;;25.68;nan;100834.38;4984356;28;20045;-76
2022/08/09 09:26:24;;;;;;;15.75;10.00;;;;;;;25.78;nan;100857.53;4987604;28;20038;-75
2022/08/09 09:28:50;;;;;;;14.70;9.00;;;;;;;25.74;nan;100850.38;4982459;28;20101;-75
2022/08/09 09:31:17;;;;;;;15.75;9.05;;;;;;;25.81;nan;100839.94;4962809;28;20203;-76
2022/08/09 09:33:42;;;;;;;14.88;9.18;;;;;;;25.78;nan;100843.25;4982562;28;20093;-74
2022/08/09 09:36:11;;;;;;;13.43;9.13;;;;;;;25.78;nan;100829.78;4977058;28;20030;-73
2022/08/09 09:38:47;;;;;;;17.20;9.45;;;;;;;25.88;nan;100837.56;4960373;28;20031;-73
2022/08/09 09:41:22;;;;;;;13.15;8.25;;;;;;;25.93;nan;100831.22;4975009;28;20649;-76
2022/08/09 09:43:49;;;;;;;10.45;8.57;;;;;;;25.97;nan;100835.66;4981967;28;20034;-74
2022/08/09 09:46:14;;;;;;;14.50;9.32;;;;;;;25.99;nan;100894.75;4979824;28;20132;-75
2022/08/09 09:48:58;;;;;;;11.18;8.65;;;;;;;26.09;nan;100838.53;4978399;28;20061;-73
2022/08/09 09:51:28;;;;;;;11.18;8.50;;;;;;;26.09;nan;100843.91;4974578;28;20046;-75
2022/08/09 09:54:07;;;;;;;14.73;9.40;;;;;;;26.14;nan;100842.19;4980198;28;20579;-74
2022/08/09 09:56:35;;;;;;;12.20;8.52;;;;;;;26.16;nan;100799.47;4983100;28;20030;-74
2022/08/09 09:59:01;;;;;;;11.60;8.60;;;;;;;26.19;nan;100832.00;4980973;28;20066;-75
2022/08/09 10:01:28;;;;;;;11.60;8.38;;;;;;;26.23;nan;100811.34;4978672;28;20120;-75
2022/08/09 10:03:54;;;;;;;14.73;8.93;;;;;;;26.28;nan;100832.00;4978799;28;20035;-75
2022/08/09 10:06:22;;;;;;;14.88;8.75;;;;;;;26.30;nan;100835.16;4980378;28;20054;-76
2022/08/09 10:08:49;;;;;;;13.40;8.60;;;;;;;26.46;nan;100844.34;4979256;28;20045;-74
2022/08/09 10:11:26;;;;;;;12.57;9.32;;;;;;;26.54;nan;100845.47;4983315;28;20046;-74
2022/08/09 10:13:52;;;;;;;11.02;8.63;;;;;;;26.58;nan;100842.91;4980439;28;20035;-75
2022/08/09 10:16:27;;;;;;;13.00;9.23;;;;;;;26.73;nan;100831.59;4984559;28;20370;-76
2022/08/09 10:18:54;;;;;;;15.63;8.38;;;;;;;26.79;nan;100814.06;4990574;28;20089;-74
2022/08/09 10:21:21;;;;;;;12.10;8.63;;;;;;;26.82;nan;100828.88;4985223;28;20832;-74
2022/08/09 10:23:49;;;;;;;15.82;9.13;;;;;;;26.74;nan;100833.16;4985617;28;20062;-75
2022/08/09 10:26:14;;;;;;;13.70;8.65;;;;;;;26.78;nan;100839.53;4985903;28;20089;-73
2022/08/09 10:28:42;;;;;;;11.60;7.95;;;;;;;26.72;nan;100830.00;4983319;28;20047;-75
2022/08/09 10:31:09;;;;;;;13.05;8.75;;;;;;;26.64;nan;100807.31;4986461;28;20037;-75
2022/08/09 10:33:35;;;;;;;11.80;8.15;;;;;;;26.62;nan;100833.84;4992286;28;20125;-75
2022/08/09 10:36:01;;;;;;;12.25;8.70;;;;;;;26.59;nan;100763.47;4952018;28;20039;-74
2022/08/09 10:38:27;;;;;;;12.95;8.40;;;;;;;26.70;nan;100834.97;4984771;28;20062;-75
2022/08/09 10:40:52;;;;;;;13.73;8.50;;;;;;;26.71;nan;100845.41;4969789;28;20047;-72
2022/08/09 10:43:17;;;;;;;10.05;8.50;;;;;;;;;;4982673;28;20106;-75
2022/08/09 10:45:44;;;;;;;9.93;7.50;;;;;;;26.99;nan;100793.66;4986673;28;20122;-75
2022/08/09 10:48:19;;;;;;;12.10;8.20;;;;;;;27.17;nan;100783.50;4968637;28;20090;-76
2022/08/09 10:51:05;;;;;;;9.43;7.53;;;;;;;27.28;nan;100806.38;4973998;28;20125;-74
2022/08/09 10:53:31;;;;;;;13.88;8.07;;;;;;;27.35;nan;100817.47;4984876;28;20469;-74
2022/08/09 10:56:24;;;;;;;10.57;8.07;;;;;;;27.43;nan;100825.88;4985170;28;20476;-74
2022/08/09 10:58:51;;;;;;;11.68;7.68;;;;;;;27.43;nan;100761.75;4978082;28;20035;-74
2022/08/09 11:01:31;;;;;;;11.20;8.27;;;;;;;27.52;nan;100818.50;4983579;28;20036;-76
2022/08/09 11:04:14;;;;;;;10.93;7.63;;;;;;;27.52;nan;100811.16;4983723;28;20379;-75
2022/08/09 11:06:44;;;;;;;10.07;7.43;;;;;;;27.45;nan;100786.53;4988409;28;20030;-74
2022/08/09 11:09:12;;;;;;;10.98;8.05;;;;;;;27.47;nan;100807.88;4987711;28;20038;-74
2022/08/09 11:11:56;;;;;;;15.02;7.78;;;;;;;27.49;nan;100821.84;4985949;28;20557;-75
2022/08/09 11:15:00;;;;;;;10.88;7.75;;;;;;;27.49;nan;100813.75;4983379;28;20049;-74
2022/08/09 11:17:25;;;;;;;14.32;8.07;;;;;;;27.48;nan;100814.84;4948154;28;20128;-75
2022/08/09 11:20:07;;;;;;;10.88;8.02;;;;;;;27.48;nan;100802.09;4945993;28;20049;-74
2022/08/09 11:22:45;;;;;;;10.90;7.90;;;;;;;27.54;nan;100810.84;4944646;28;20032;-73
2022/08/09 11:25:32;;;;;;;12.27;8.05;;;;;;;27.51;nan;100797.94;4943499;29;20339;-73
2022/08/09 11:27:57;;;;;;;12.00;8.30;;;;;;;27.52;nan;100854.44;4944806;28;20887;-73
2022/08/09 11:30:23;;;;;;;12.85;8.10;;;;;;;27.52;nan;100789.50;4946204;28;20114;-74
2022/08/09 11:32:53;;;;;;;9.52;7.85;;;;;;;27.51;nan;100793.34;4943194;28;20126;-75
2022/08/09 11:35:21;;;;;;;15.50;8.55;;;;;;;27.56;nan;100790.44;4943708;28;20126;-74
2022/08/09 11:37:49;;;;;;;11.20;7.63;;;;;;;27.59;nan;100770.06;4944364;28;20036;-74
2022/08/09 11:40:34;;;;;;;10.55;7.50;;;;;;;27.62;nan;100782.13;4926533;29;20528;-73
2022/08/09 11:43:00;;;;;;;10.80;8.10;;;;;;;27.68;nan;100783.50;4930231;29;20051;-73
2022/08/09 11:45:39;;;;;;;13.35;8.60;;;;;;;27.63;nan;100735.81;4932448;28;20098;-72
2022/08/09 11:48:10;;;;;;;11.65;7.53;;;;;;;27.72;nan;100760.84;4942942;28;20043;-72
2022/08/09 11:51:04;;;;;;;11.45;8.25;;;;;;;27.69;nan;100793.22;4946365;28;20036;-72
2022/08/09 11:53:37;;;;;;;21.75;8.18;;;;;;;27.79;nan;100769.22;4979413;28;20039;-73